British Robin — MGSH7 — position and weather

sailwx.info

Track history (hours):
 
Tides and Currents Weather Stations Pressure Air Temp Water Temp Dewpoint Dewpoint Depression Visibility Wind Speed Wind Dir Waves Ship Positions

British Robin

Last reported at 2015-Jan-31 05:33 UTC. Time now 2015-Jan-31 07:06 UTC.
Position N 51°25' E 001°54'.

Length 251.5 m; beam 43.9 m; draft 15 m.

Type: Tanker. MMSI: 232156000.

Date/timePositionNaut miles runAvg speedWind from/ knotsBaromVisibWave heightAir tempDewpointWater temp
2015-Jan-31 05:33N 51°25' E 001°54'1413.9
2015-Jan-31 04:34N 51°35' E 002°09'21812.4
2015-Jan-30 11:00N 54°48' E 005°00'15813.2 210 / 20972.710.8 2.0 8.0-2.9
2015-Jan-29 23:00N 57°06' E 007°18'3212.4 200 / 28972.310.8 1.5 4.0-1.6
2015-Jan-29 20:24N 57°27' E 008°03'1011.7
2015-Jan-29 19:33N 57°31' E 008°20'1211.7
2015-Jan-29 18:32N 57°34' E 008°41'6011.3
2015-Jan-29 13:14N 57°50' E 010°29'810.3
2015-Jan-29 12:28N 57°49' E 010°44'8 8.3
2015-Jan-29 11:33N 57°42' E 010°45'2 0.8
2015-Jan-29 09:27N 57°42' E 010°42'0 0.0
2015-Jan-29 08:27N 57°42' E 010°42'0 0.0
2015-Jan-29 07:33N 57°42' E 010°42'0 0.0
2015-Jan-29 06:21N 57°42' E 010°42'0 0.1
2015-Jan-29 03:19N 57°42' E 010°43'4 5.4
2015-Jan-29 02:33N 57°39' E 010°49'1312.8
2015-Jan-29 01:33N 57°32' E 011°09'1212.1
2015-Jan-29 00:33N 57°25' E 011°28'1313.2
2015-Jan-28 23:33N 57°13' E 011°36'1313.4
2015-Jan-28 22:33N 57°00' E 011°44'1313.5
2015-Jan-28 21:33N 56°48' E 011°52'1413.5
2015-Jan-28 20:33N 56°35' E 011°43'10011.9
2015-Jan-28 12:09N 54°58' E 010°58'2011.4
2015-Jan-28 10:26N 54°39' E 010°53'1112.9
2015-Jan-28 09:33N 54°35' E 011°12'1413.7
2015-Jan-28 08:33N 54°30' E 011°33'1312.7
2015-Jan-28 07:33N 54°26' E 011°54'1010.4
2015-Jan-28 06:33N 54°28' E 012°12'1110.6
2015-Jan-28 05:33N 54°38' E 012°20'1111.0
2015-Jan-28 04:33N 54°43' E 012°36'1111.2
2015-Jan-28 03:33N 54°49' E 012°53'1313.0
2015-Jan-28 02:32N 54°54' E 013°14'1312.9
2015-Jan-28 01:33N 54°58' E 013°35'1313.2
2015-Jan-28 00:33N 55°03' E 013°56'1313.1
2015-Jan-27 23:32N 55°09' E 014°17'1313.1
2015-Jan-27 22:33N 55°16' E 014°36'10 9.7
2015-Jan-27 21:33N 55°21' E 014°51'3 2.8
2015-Jan-27 20:33N 55°21' E 014°55'1212.0
2015-Jan-27 19:33N 55°29' E 015°11'1713.5
2015-Jan-27 18:16N 55°39' E 015°36'31012.2
2015-Jan-26 17:00N 59°24' E 022°12'4412.9 130 / 271011.610.8 1.5 3.0 1.7
2015-Jan-26 13:33N 59°39' E 023°34'1312.7
2015-Jan-26 12:29N 59°43' E 023°60'1313.4
2015-Jan-26 11:33N 59°46' E 024°24'6013.6
2015-Jan-26 07:09N 59°59' E 026°20'813.1
2015-Jan-26 06:33N 60°01' E 026°35'1413.1
2015-Jan-26 05:28N 59°59' E 027°03'1213.1
2015-Jan-26 04:33N 60°06' E 027°24'  
2015-Jan-21 17:21N 60°03' E 027°20'1012.5
2015-Jan-21 16:32N 59°58' E 027°02'1212.4
2015-Jan-21 15:34N 59°60' E 026°39'1312.7
2015-Jan-21 14:33N 59°56' E 026°14'2712.8
2015-Jan-21 12:27N 59°50' E 025°22'1813.1
2015-Jan-21 11:07N 59°46' E 024°48'813.6
2015-Jan-21 10:33N 59°45' E 024°33'1813.6
2015-Jan-21 09:14N 59°40' E 023°59'1113.5
2015-Jan-21 08:27N 59°36' E 023°39'1513.6
2015-Jan-21 07:19N 59°32' E 023°11'  
Track history (hours):
 
Tides and Currents Weather Stations Pressure Air Temp Water Temp Dewpoint Dewpoint Depression Visibility Wind Speed Wind Dir Waves Ship Positions

British Robin

Last reported at 2015-Jan-31 05:33 UTC. Time now 2015-Jan-31 07:06 UTC.
Position N 51°25' E 001°54'.

Length 251.5 m; beam 43.9 m; draft 15 m.

Type: Tanker. MMSI: 232156000.

Date/timePositionNaut miles runAvg speedWind from/ knotsBaromVisibWave heightAir tempDewpointWater temp
2015-Jan-31 05:33N 51°25' E 001°54'1413.9
2015-Jan-31 04:34N 51°35' E 002°09'21812.4
2015-Jan-30 11:00N 54°48' E 005°00'15813.2 210 / 20972.710.8 2.0 8.0-2.9
2015-Jan-29 23:00N 57°06' E 007°18'3212.4 200 / 28972.310.8 1.5 4.0-1.6
2015-Jan-29 20:24N 57°27' E 008°03'1011.7
2015-Jan-29 19:33N 57°31' E 008°20'1211.7
2015-Jan-29 18:32N 57°34' E 008°41'6011.3
2015-Jan-29 13:14N 57°50' E 010°29'810.3
2015-Jan-29 12:28N 57°49' E 010°44'8 8.3
2015-Jan-29 11:33N 57°42' E 010°45'2 0.8
2015-Jan-29 09:27N 57°42' E 010°42'0 0.0
2015-Jan-29 08:27N 57°42' E 010°42'0 0.0
2015-Jan-29 07:33N 57°42' E 010°42'0 0.0
2015-Jan-29 06:21N 57°42' E 010°42'0 0.1
2015-Jan-29 03:19N 57°42' E 010°43'4 5.4
2015-Jan-29 02:33N 57°39' E 010°49'1312.8
2015-Jan-29 01:33N 57°32' E 011°09'1212.1
2015-Jan-29 00:33N 57°25' E 011°28'1313.2
2015-Jan-28 23:33N 57°13' E 011°36'1313.4
2015-Jan-28 22:33N 57°00' E 011°44'1313.5
2015-Jan-28 21:33N 56°48' E 011°52'1413.5
2015-Jan-28 20:33N 56°35' E 011°43'10011.9
2015-Jan-28 12:09N 54°58' E 010°58'2011.4
2015-Jan-28 10:26N 54°39' E 010°53'1112.9
2015-Jan-28 09:33N 54°35' E 011°12'1413.7
2015-Jan-28 08:33N 54°30' E 011°33'1312.7
2015-Jan-28 07:33N 54°26' E 011°54'1010.4
2015-Jan-28 06:33N 54°28' E 012°12'1110.6
2015-Jan-28 05:33N 54°38' E 012°20'1111.0
2015-Jan-28 04:33N 54°43' E 012°36'1111.2
2015-Jan-28 03:33N 54°49' E 012°53'1313.0
2015-Jan-28 02:32N 54°54' E 013°14'1312.9
2015-Jan-28 01:33N 54°58' E 013°35'1313.2
2015-Jan-28 00:33N 55°03' E 013°56'1313.1
2015-Jan-27 23:32N 55°09' E 014°17'1313.1
2015-Jan-27 22:33N 55°16' E 014°36'10 9.7
2015-Jan-27 21:33N 55°21' E 014°51'3 2.8
2015-Jan-27 20:33N 55°21' E 014°55'1212.0
2015-Jan-27 19:33N 55°29' E 015°11'1713.5
2015-Jan-27 18:16N 55°39' E 015°36'31012.2
2015-Jan-26 17:00N 59°24' E 022°12'4412.9 130 / 271011.610.8 1.5 3.0 1.7
2015-Jan-26 13:33N 59°39' E 023°34'1312.7
2015-Jan-26 12:29N 59°43' E 023°60'1313.4
2015-Jan-26 11:33N 59°46' E 024°24'6013.6
2015-Jan-26 07:09N 59°59' E 026°20'813.1
2015-Jan-26 06:33N 60°01' E 026°35'1413.1
2015-Jan-26 05:28N 59°59' E 027°03'1213.1
2015-Jan-26 04:33N 60°06' E 027°24'  
2015-Jan-21 17:21N 60°03' E 027°20'1012.5
2015-Jan-21 16:32N 59°58' E 027°02'1212.4
2015-Jan-21 15:34N 59°60' E 026°39'1312.7
2015-Jan-21 14:33N 59°56' E 026°14'2712.8
2015-Jan-21 12:27N 59°50' E 025°22'1813.1
2015-Jan-21 11:07N 59°46' E 024°48'813.6
2015-Jan-21 10:33N 59°45' E 024°33'1813.6
2015-Jan-21 09:14N 59°40' E 023°59'1113.5
2015-Jan-21 08:27N 59°36' E 023°39'1513.6
2015-Jan-21 07:19N 59°32' E 023°11'  

Dump ship's entire track history